スィクティフカル の空港の天気 - METARとTAF

Syktyvkar ( UUYY / SCW ) - ロシア スィクティフカル
飛行場実況気象(Metar)
観測時間07/17 12:00 MSK (07/17 09:00 UTC)
風向・風速北北東 5m/s
視程10km以上
天気現象
全天の4割程度の雲 雲底高度 1010m
気温26℃
湿度54%
気圧1014hPa
METARUUYY 170900Z 02005MPS 9999 SCT033 26/16 Q1014 R36/61D NOSIG RMK QFE751/1002
過去の天気等 Google飛行場航空写真 Wunderground天気予報

過去48時間のMETAR

飛行場予報(TAF)
発表時間: 7/17 11:00 MSK (7/17 08:00 UTC)
予報対象時間: 17日12時 MSK ~ 18日12時 MSK
風向・風速北北東 6m/s
視程10km以上
全天の8割程度の積乱雲 雲底高度 610m
17日12時 MSK ~ 17日15時 MSK に一時的に
風向・風速北東 7m/s 瞬間風速 11m/s
視程4000m
天気現象弱いしゅう雨
全天の8割程度の雲 雲底高度 370m
全天の8割程度の積乱雲 雲底高度 460m
17日15時 MSK ~ 17日21時 MSK に一時的に
風向・風速不定 12m/s
視程3100m
天気現象弱い雷雨
全天の8割程度の雲 雲底高度 340m
全天の8割程度の積乱雲 雲底高度 370m
17日21時 MSK ~ 17日22時 MSK に徐々に
風向・風速東北東 3m/s 瞬間風速 8m/s
17日21時 MSK ~ 18日6時 MSK に一時的に
視程3100m
天気現象もや
全天の8割程度の雲 雲底高度 340m
TAF UUYY 170800Z 1709/1809 02006MPS 9999 BKN020CB
TEMPO 1709/1712 04007G11MPS 4000 -SHRA BKN012 BKN015CB
TEMPO 1712/1718 VRB12MPS 3100 -TSRA BKN011 BKN012CB
BECMG 1718/1719 06003G08MPS
TEMPO 1718/1803 3100 BR BKN011